Time;durP1;ratioP1;P1;durP2;ratioP2;P2;SDS_P1;SDS_P2;PMS_P1;PMS_P2;Temp;Humidity;BMP_temperature;BMP_pressure;BME280_temperature;BME280_humidity;BME280_pressure;Samples;Min_cycle;Max_cycle;Signal;HPM_P1;HPM_P2
2021/01/27 00:00:03;;;;;;;;;;;17.60;50.20;;;;;;5045404;28;19925;-54
2021/01/27 00:02:29;;;;;;;;;;;17.60;50.30;;;;;;5041223;28;20754;-54
2021/01/27 00:04:55;;;;;;;;;;;17.60;50.30;;;;;;5047169;28;19935;-55
2021/01/27 00:07:21;;;;;;;;;;;17.60;50.30;;;;;;5045740;28;19931;-54
2021/01/27 00:09:48;;;;;;;;;;;17.60;50.30;;;;;;5037893;28;19925;-55
2021/01/27 00:12:14;;;;;;;;;;;17.60;50.30;;;;;;5045884;28;19925;-55
2021/01/27 00:14:40;;;;;;;;;;;17.60;50.30;;;;;;5037434;28;19944;-53
2021/01/27 00:17:11;;;;;;;;;;;17.50;50.20;;;;;;5048839;28;19928;-53
2021/01/27 00:19:38;;;;;;;;;;;17.60;50.40;;;;;;5039947;28;19932;-54
2021/01/27 00:22:04;;;;;;;;;;;17.50;50.40;;;;;;5046794;28;19932;-54
2021/01/27 00:24:30;;;;;;;;;;;17.50;50.40;;;;;;5035222;28;20459;-54
2021/01/27 00:27:01;;;;;;;;;;;17.50;50.40;;;;;;5048003;28;19939;-55
2021/01/27 00:29:28;;;;;;;;;;;17.50;51.00;;;;;;5041820;28;20590;-53
2021/01/27 00:31:54;;;;;;;;;;;17.50;50.40;;;;;;5047218;28;19932;-53
2021/01/27 00:34:21;;;;;;;;;;;17.50;50.40;;;;;;5042392;28;19925;-53
2021/01/27 00:36:49;;;;;;;;;;;17.50;50.50;;;;;;5056912;28;19940;-54
2021/01/27 00:39:15;;;;;;;;;;;17.50;50.50;;;;;;5041598;28;19940;-53
2021/01/27 00:41:41;;;;;;;;;;;17.40;50.40;;;;;;5031177;28;19933;-53
2021/01/27 00:44:07;;;;;;;;;;;17.50;50.50;;;;;;5041172;28;19933;-54
2021/01/27 00:46:34;;;;;;;;;;;17.40;50.40;;;;;;5048440;28;19924;-54
2021/01/27 00:49:01;;;;;;;;;;;17.40;50.50;;;;;;5043352;28;19933;-53
2021/01/27 00:51:28;;;;;;;;;;;17.40;50.50;;;;;;5049662;28;19928;-55
2021/01/27 00:53:55;;;;;;;;;;;17.40;50.50;;;;;;5046186;28;19932;-55
2021/01/27 00:56:21;;;;;;;;;;;17.40;50.60;;;;;;5045419;28;20004;-55
2021/01/27 00:58:48;;;;;;;;;;;17.40;50.60;;;;;;5045926;28;19925;-54
2021/01/27 01:01:14;;;;;;;;;;;17.40;50.60;;;;;;5042912;28;19929;-54
2021/01/27 01:03:41;;;;;;;;;;;17.40;50.60;;;;;;5050150;28;20004;-54
2021/01/27 01:06:07;;;;;;;;;;;17.40;50.60;;;;;;5042583;28;20393;-55
2021/01/27 01:08:33;;;;;;;;;;;17.40;50.60;;;;;;5049375;28;19924;-54
2021/01/27 01:11:00;;;;;;;;;;;17.30;50.60;;;;;;5038463;28;19936;-54
2021/01/27 01:13:28;;;;;;;;;;;17.30;50.60;;;;;;5046707;28;19931;-52
2021/01/27 01:15:54;;;;;;;;;;;17.30;50.60;;;;;;5039809;28;19925;-53
2021/01/27 01:18:21;;;;;;;;;;;17.40;50.70;;;;;;5049209;28;20285;-53
2021/01/27 01:20:48;;;;;;;;;;;17.30;50.60;;;;;;5039809;28;19929;-54
2021/01/27 01:23:14;;;;;;;;;;;17.30;50.60;;;;;;5048120;28;19943;-53
2021/01/27 01:25:41;;;;;;;;;;;17.30;50.60;;;;;;5038527;28;20408;-53
2021/01/27 01:28:07;;;;;;;;;;;17.30;50.60;;;;;;5047334;28;19933;-54
2021/01/27 01:30:38;;;;;;;;;;;17.30;50.60;;;;;;5044822;28;20277;-53
2021/01/27 01:33:04;;;;;;;;;;;17.30;50.60;;;;;;5048330;28;19925;-54
2021/01/27 01:35:31;;;;;;;;;;;17.30;50.70;;;;;;5047308;28;19954;-53
2021/01/27 01:37:57;;;;;;;;;;;17.30;50.70;;;;;;5040960;28;20012;-53
2021/01/27 01:40:25;;;;;;;;;;;17.20;50.60;;;;;;5049122;28;19925;-53
2021/01/27 01:43:07;;;;;;;;;;;17.30;50.70;;;;;;5039085;28;19924;-53
2021/01/27 01:45:39;;;;;;;;;;;17.20;50.60;;;;;;5047627;28;20035;-53
2021/01/27 01:48:09;;;;;;;;;;;17.20;50.60;;;;;;5039063;28;19932;-53
2021/01/27 01:50:35;;;;;;;;;;;17.20;50.60;;;;;;5047368;28;19933;-53
2021/01/27 01:53:01;;;;;;;;;;;17.20;50.60;;;;;;5037497;28;19925;-53
2021/01/27 01:55:28;;;;;;;;;;;17.20;50.60;;;;;;5050131;28;19931;-52
2021/01/27 01:57:54;;;;;;;;;;;17.20;50.60;;;;;;5041044;28;19925;-55
2021/01/27 02:00:22;;;;;;;;;;;17.20;50.60;;;;;;5047335;28;20265;-55
2021/01/27 02:02:49;;;;;;;;;;;17.20;50.60;;;;;;5041063;28;19924;-54
2021/01/27 02:05:17;;;;;;;;;;;17.20;50.50;;;;;;5052989;28;20541;-54
2021/01/27 02:07:43;;;;;;;;;;;17.20;50.50;;;;;;5038788;28;20364;-55
2021/01/27 02:10:11;;;;;;;;;;;17.20;50.50;;;;;;5052175;28;19931;-53
2021/01/27 02:12:56;;;;;;;;;;;17.10;50.50;;;;;;5042581;28;19940;-53
2021/01/27 02:15:37;;;;;;;;;;;17.20;50.60;;;;;;5047014;28;19925;-53
2021/01/27 02:18:12;;;;;;;;;;;17.10;50.50;;;;;;5038861;28;19960;-54
2021/01/27 02:20:57;;;;;;;;;;;17.10;50.50;;;;;;5048545;28;19925;-54
2021/01/27 02:23:33;;;;;;;;;;;17.10;50.40;;;;;;5041063;28;19932;-54
2021/01/27 02:26:34;;;;;;;;;;;17.10;50.40;;;;;;5049511;28;19931;-54
2021/01/27 02:29:03;;;;;;;;;;;17.10;50.40;;;;;;5003924;28;20381;-54
2021/01/27 02:31:49;;;;;;;;;;;17.10;50.40;;;;;;5041307;28;19939;-54
2021/01/27 02:34:35;;;;;;;;;;;17.10;50.30;;;;;;5036090;28;20264;-53
2021/01/27 02:37:04;;;;;;;;;;;17.10;50.30;;;;;;5045918;28;20444;-54
2021/01/27 02:39:37;;;;;;;;;;;17.00;50.30;;;;;;5037434;28;19933;-53
2021/01/27 02:42:16;;;;;;;;;;;17.10;50.20;;;;;;5047981;28;19924;-53
2021/01/27 02:44:45;;;;;;;;;;;17.00;50.10;;;;;;5035013;28;19925;-52
2021/01/27 02:47:18;;;;;;;;;;;17.00;50.10;;;;;;5046822;28;19944;-53
2021/01/27 02:49:48;;;;;;;;;;;17.00;50.10;;;;;;5039395;28;19924;-53
2021/01/27 02:52:17;;;;;;;;;;;17.00;50.10;;;;;;5046181;28;19932;-53
2021/01/27 02:54:55;;;;;;;;;;;17.00;50.00;;;;;;5040504;28;19925;-53
2021/01/27 02:57:21;;;;;;;;;;;17.00;50.00;;;;;;5043852;28;19925;-53
2021/01/27 02:59:58;;;;;;;;;;;17.00;50.00;;;;;;5041531;28;19929;-53
2021/01/27 03:02:34;;;;;;;;;;;17.00;50.00;;;;;;5045614;28;19931;-53
2021/01/27 03:05:06;;;;;;;;;;;17.00;50.50;;;;;;5041011;28;19952;-53
2021/01/27 03:07:33;;;;;;;;;;;17.00;49.80;;;;;;5042578;28;19924;-53
2021/01/27 03:10:03;;;;;;;;;;;17.00;49.80;;;;;;5040967;28;19932;-52
2021/01/27 03:12:29;;;;;;;;;;;16.90;49.70;;;;;;5042962;28;20432;-53
2021/01/27 03:14:55;;;;;;;;;;;16.90;49.70;;;;;;5040125;28;19944;-55
2021/01/27 03:17:22;;;;;;;;;;;16.90;49.70;;;;;;5045188;28;19925;-53
2021/01/27 03:19:53;;;;;;;;;;;16.90;49.70;;;;;;5040865;28;19925;-55
2021/01/27 03:22:22;;;;;;;;;;;16.90;49.70;;;;;;5048362;28;19925;-55
2021/01/27 03:24:53;;;;;;;;;;;16.90;49.60;;;;;;5046982;28;19971;-53
2021/01/27 03:27:24;;;;;;;;;;;16.90;49.50;;;;;;5040409;28;19933;-54
2021/01/27 03:29:55;;;;;;;;;;;16.90;49.50;;;;;;5047049;28;19932;-54
2021/01/27 03:32:45;;;;;;;;;;;16.90;49.50;;;;;;5038618;28;20308;-54
2021/01/27 03:35:11;;;;;;;;;;;16.90;49.50;;;;;;5050551;28;19932;-53
2021/01/27 03:37:43;;;;;;;;;;;16.90;49.40;;;;;;5039101;28;19951;-53
2021/01/27 03:40:11;;;;;;;;;;;16.80;49.40;;;;;;5052854;28;20414;-53
2021/01/27 03:42:45;;;;;;;;;;;16.90;49.40;;;;;;5035478;28;19929;-53
2021/01/27 03:45:13;;;;;;;;;;;16.90;49.40;;;;;;5053390;28;19931;-54
2021/01/27 03:47:39;;;;;;;;;;;16.80;49.40;;;;;;5039141;28;19932;-53
2021/01/27 03:50:12;;;;;;;;;;;16.80;49.40;;;;;;5043974;28;21524;-55
2021/01/27 03:52:39;;;;;;;;;;;16.80;49.40;;;;;;5040804;28;19924;-53
2021/01/27 03:55:17;;;;;;;;;;;16.80;49.40;;;;;;5047772;28;20509;-54
2021/01/27 03:57:47;;;;;;;;;;;16.80;49.40;;;;;;5039751;28;19932;-53
2021/01/27 04:00:14;;;;;;;;;;;16.80;49.30;;;;;;5046857;28;19925;-55
2021/01/27 04:02:40;;;;;;;;;;;16.80;49.30;;;;;;5040661;28;19925;-55
2021/01/27 04:05:07;;;;;;;;;;;16.80;49.20;;;;;;5054249;28;20379;-52
2021/01/27 04:07:33;;;;;;;;;;;16.80;49.20;;;;;;5037202;28;19924;-54
2021/01/27 04:10:00;;;;;;;;;;;16.80;49.30;;;;;;5045090;28;19968;-54
2021/01/27 04:12:26;;;;;;;;;;;16.80;49.20;;;;;;5038510;28;19940;-54
2021/01/27 04:14:52;;;;;;;;;;;16.80;49.20;;;;;;5046347;28;19931;-54
2021/01/27 04:17:29;;;;;;;;;;;16.70;49.20;;;;;;5037789;28;20011;-54
2021/01/27 04:19:56;;;;;;;;;;;16.80;49.30;;;;;;5049597;28;19925;-54
2021/01/27 04:22:23;;;;;;;;;;;16.80;49.30;;;;;;5040381;28;20441;-55
2021/01/27 04:24:49;;;;;;;;;;;16.80;49.20;;;;;;5052111;28;20042;-54
2021/01/27 04:27:15;;;;;;;;;;;16.70;49.20;;;;;;5050471;28;19924;-54
2021/01/27 04:29:42;;;;;;;;;;;16.70;49.20;;;;;;5041289;28;19978;-53
2021/01/27 04:32:08;;;;;;;;;;;16.70;49.20;;;;;;5051714;28;19931;-53
2021/01/27 04:34:34;;;;;;;;;;;16.70;49.10;;;;;;5046988;28;19931;-53
2021/01/27 04:37:01;;;;;;;;;;;16.70;49.20;;;;;;5049084;28;19955;-53
2021/01/27 04:39:27;;;;;;;;;;;16.70;49.20;;;;;;5042591;28;20369;-53
2021/01/27 04:41:54;;;;;;;;;;;16.70;49.20;;;;;;5049960;28;19932;-53
2021/01/27 04:44:21;;;;;;;;;;;16.70;49.20;;;;;;5044195;28;19931;-53
2021/01/27 04:46:56;;;;;;;;;;;16.70;49.20;;;;;;5046918;28;19939;-53
2021/01/27 04:49:26;;;;;;;;;;;16.70;49.20;;;;;;5039833;28;20365;-55
2021/01/27 04:51:52;;;;;;;;;;;16.70;49.30;;;;;;5060811;28;19924;-55
2021/01/27 04:54:27;;;;;;;;;;;16.70;49.20;;;;;;5045450;28;19925;-53
2021/01/27 04:57:05;;;;;;;;;;;16.60;49.30;;;;;;5046445;28;20393;-52
2021/01/27 04:59:50;;;;;;;;;;;16.60;49.30;;;;;;5041615;28;19925;-54
2021/01/27 05:02:32;;;;;;;;;;;16.60;49.20;;;;;;5038137;28;19924;-53
2021/01/27 05:05:07;;;;;;;;;;;16.70;49.30;;;;;;5043144;28;19986;-53
2021/01/27 05:07:47;;;;;;;;;;;16.60;49.20;;;;;;5047238;28;19928;-53
2021/01/27 05:10:18;;;;;;;;;;;16.60;49.30;;;;;;5040866;28;20034;-53
2021/01/27 05:12:51;;;;;;;;;;;16.60;49.20;;;;;;5044490;28;19924;-53
2021/01/27 05:15:17;;;;;;;;;;;16.60;49.20;;;;;;5041886;28;19955;-54
2021/01/27 05:17:44;;;;;;;;;;;16.60;49.30;;;;;;5034736;28;19940;-55
2021/01/27 05:20:12;;;;;;;;;;;16.60;49.20;;;;;;5030390;28;19932;-52
2021/01/27 05:22:38;;;;;;;;;;;16.60;49.10;;;;;;5046070;28;19940;-54
2021/01/27 05:25:11;;;;;;;;;;;16.60;49.20;;;;;;5039966;28;21014;-52
2021/01/27 05:27:38;;;;;;;;;;;16.60;49.30;;;;;;5045769;28;19929;-54
2021/01/27 05:30:07;;;;;;;;;;;16.60;49.20;;;;;;5040169;28;19947;-53
2021/01/27 05:32:47;;;;;;;;;;;16.60;49.20;;;;;;5046301;28;20317;-54
2021/01/27 05:35:26;;;;;;;;;;;16.60;49.20;;;;;;5043192;28;19931;-53
2021/01/27 05:37:52;;;;;;;;;;;16.60;49.20;;;;;;5046857;28;19933;-54
2021/01/27 05:40:29;;;;;;;;;;;16.60;49.30;;;;;;5044013;28;19966;-53
2021/01/27 05:42:56;;;;;;;;;;;16.50;49.30;;;;;;5048699;28;19925;-52
2021/01/27 05:45:28;;;;;;;;;;;16.50;49.30;;;;;;5047372;28;19952;-53
2021/01/27 05:47:54;;;;;;;;;;;16.60;49.30;;;;;;5044111;28;19932;-55
2021/01/27 05:50:21;;;;;;;;;;;16.50;49.20;;;;;;5049905;28;20300;-54
2021/01/27 05:52:47;;;;;;;;;;;16.50;49.30;;;;;;5041982;28;19933;-53
2021/01/27 05:55:14;;;;;;;;;;;16.50;49.30;;;;;;5045871;28;19925;-53
2021/01/27 05:57:41;;;;;;;;;;;16.50;49.30;;;;;;5043082;28;19997;-53
2021/01/27 06:00:07;;;;;;;;;;;16.50;49.30;;;;;;5045438;28;19933;-53
2021/01/27 06:02:41;;;;;;;;;;;16.50;49.30;;;;;;5041418;28;19925;-56
2021/01/27 06:05:13;;;;;;;;;;;16.50;49.30;;;;;;5047663;28;19933;-53
2021/01/27 06:07:39;;;;;;;;;;;16.50;49.30;;;;;;5038736;28;19932;-53
2021/01/27 06:10:24;;;;;;;;;;;16.50;49.30;;;;;;5047880;28;19924;-53
2021/01/27 06:12:50;;;;;;;;;;;16.50;49.30;;;;;;5039400;28;20528;-53
2021/01/27 06:15:27;;;;;;;;;;;16.50;49.30;;;;;;5051072;28;19924;-53
2021/01/27 06:17:53;;;;;;;;;;;16.50;49.30;;;;;;5040218;28;19931;-54
2021/01/27 06:20:28;;;;;;;;;;;16.50;49.40;;;;;;5048457;28;19940;-52
2021/01/27 06:23:09;;;;;;;;;;;16.50;49.40;;;;;;5040729;28;20289;-52
2021/01/27 06:25:55;;;;;;;;;;;16.50;49.50;;;;;;5046112;28;19937;-53
2021/01/27 06:28:41;;;;;;;;;;;16.50;49.40;;;;;;5048774;28;20428;-53
2021/01/27 06:31:13;;;;;;;;;;;16.50;49.50;;;;;;5044407;28;19936;-53
2021/01/27 06:33:58;;;;;;;;;;;16.50;49.50;;;;;;5047921;28;19932;-52
2021/01/27 06:36:47;;;;;;;;;;;16.50;49.60;;;;;;5044382;28;19932;-53
2021/01/27 06:39:40;;;;;;;;;;;16.50;49.60;;;;;;5041094;28;19948;-53
2021/01/27 06:42:06;;;;;;;;;;;16.50;49.70;;;;;;5046551;28;19932;-53
2021/01/27 06:44:37;;;;;;;;;;;16.50;49.70;;;;;;5034829;28;19924;-53
2021/01/27 06:47:18;;;;;;;;;;;16.50;50.70;;;;;;5042506;28;19926;-54
2021/01/27 06:49:55;;;;;;;;;;;16.90;50.30;;;;;;5038027;28;20358;-53
2021/01/27 06:52:40;;;;;;;;;;;17.40;49.40;;;;;;5047547;28;19936;-53
2021/01/27 06:55:21;;;;;;;;;;;17.90;48.80;;;;;;5021905;28;19932;-55
2021/01/27 06:57:52;;;;;;;;;;;18.20;47.80;;;;;;5046730;28;19932;-53
2021/01/27 07:00:39;;;;;;;;;;;18.40;47.40;;;;;;5039946;28;19933;-54
2021/01/27 07:03:24;;;;;;;;;;;18.60;47.10;;;;;;5047110;28;19931;-53
2021/01/27 07:05:55;;;;;;;;;;;18.70;47.40;;;;;;5043484;28;19931;-53
2021/01/27 07:08:24;;;;;;;;;;;18.90;47.30;;;;;;5046358;28;19929;-52
2021/01/27 07:11:09;;;;;;;;;;;19.00;46.90;;;;;;5046680;28;19925;-54
2021/01/27 07:14:04;;;;;;;;;;;19.10;46.70;;;;;;5046414;28;20377;-52
2021/01/27 07:16:50;;;;;;;;;;;19.30;46.40;;;;;;5046866;28;20562;-61
2021/01/27 07:19:35;;;;;;;;;;;19.40;46.00;;;;;;5040055;28;19936;-61
2021/01/27 07:22:06;;;;;;;;;;;19.50;46.40;;;;;;5053063;28;19925;-53
2021/01/27 07:24:40;;;;;;;;;;;19.60;45.70;;;;;;5035661;28;19924;-54
2021/01/27 07:27:12;;;;;;;;;;;19.70;45.60;;;;;;5067490;28;19925;-61
2021/01/27 07:29:44;;;;;;;;;;;19.80;45.60;;;;;;5037627;28;19925;-60
2021/01/27 07:32:30;;;;;;;;;;;19.90;45.40;;;;;;5054377;28;19925;-53
2021/01/27 07:34:57;;;;;;;;;;;19.90;45.30;;;;;;5041349;28;21190;-52
2021/01/27 07:37:34;;;;;;;;;;;19.60;45.80;;;;;;5056744;28;19925;-57
2021/01/27 07:40:00;;;;;;;;;;;19.30;46.50;;;;;;5040993;28;19931;-63
2021/01/27 07:42:41;;;;;;;;;;;19.10;47.10;;;;;;5045078;28;19948;-53
2021/01/27 07:45:12;;;;;;;;;;;18.90;47.00;;;;;;5041435;28;21569;-56
2021/01/27 07:47:49;;;;;;;;;;;18.70;47.90;;;;;;5043435;28;20427;-57
2021/01/27 07:50:19;;;;;;;;;;;18.80;48.10;;;;;;5030905;28;19925;-57
2021/01/27 07:53:01;;;;;;;;;;;18.80;48.10;;;;;;5056185;28;19987;-56
2021/01/27 07:55:55;;;;;;;;;;;18.90;48.10;;;;;;5056380;28;19932;-58
2021/01/27 07:58:25;;;;;;;;;;;18.90;48.20;;;;;;5047187;28;19940;-61
2021/01/27 08:01:03;;;;;;;;;;;19.00;48.20;;;;;;5053239;28;19933;-57
2021/01/27 08:03:35;;;;;;;;;;;19.00;48.10;;;;;;5052604;28;19970;-56
2021/01/27 08:06:04;;;;;;;;;;;19.00;47.80;;;;;;5047015;28;20536;-59
2021/01/27 08:08:31;;;;;;;;;;;19.00;47.90;;;;;;5049353;28;19931;-60
2021/01/27 08:11:08;;;;;;;;;;;19.00;47.70;;;;;;5050086;28;20539;-60
2021/01/27 08:13:39;;;;;;;;;;;19.00;47.90;;;;;;5047997;28;20019;-60
2021/01/27 08:16:15;;;;;;;;;;;19.00;47.90;;;;;;5051091;28;19932;-62
2021/01/27 08:19:05;;;;;;;;;;;19.00;47.80;;;;;;5044145;28;19939;-60
2021/01/27 08:21:52;;;;;;;;;;;19.00;47.80;;;;;;5040823;28;19924;-62
2021/01/27 08:24:34;;;;;;;;;;;19.00;48.20;;;;;;5045055;28;20459;-61
2021/01/27 08:27:09;;;;;;;;;;;19.10;48.20;;;;;;5043072;28;19956;-62
2021/01/27 08:29:37;;;;;;;;;;;19.00;48.50;;;;;;5047990;28;19931;-62
2021/01/27 08:32:20;;;;;;;;;;;19.10;48.00;;;;;;5041590;28;19929;-60
2021/01/27 08:34:46;;;;;;;;;;;19.10;48.10;;;;;;5048116;28;19958;-62
2021/01/27 08:37:19;;;;;;;;;;;19.10;48.10;;;;;;5040233;28;19925;-61
2021/01/27 08:39:45;;;;;;;;;;;19.10;48.00;;;;;;5047536;28;19963;-62
2021/01/27 08:42:19;;;;;;;;;;;19.10;48.00;;;;;;5048278;28;19932;-58
2021/01/27 08:44:46;;;;;;;;;;;19.10;47.60;;;;;;5045655;28;20410;-58
2021/01/27 08:47:36;;;;;;;;;;;19.20;47.70;;;;;;5047420;28;19936;-58
2021/01/27 08:50:03;;;;;;;;;;;19.20;47.80;;;;;;5045866;28;20203;-57
2021/01/27 08:52:29;;;;;;;;;;;19.20;47.60;;;;;;5049074;28;19925;-57
2021/01/27 08:54:56;;;;;;;;;;;19.20;47.70;;;;;;5041424;28;19933;-57
2021/01/27 08:57:22;;;;;;;;;;;19.20;47.90;;;;;;5048866;28;19929;-57
2021/01/27 09:00:00;;;;;;;;;;;19.20;48.00;;;;;;5039137;28;19933;-58
2021/01/27 09:02:46;;;;;;;;;;;19.20;47.70;;;;;;5032061;28;20545;-57
2021/01/27 09:05:28;;;;;;;;;;;19.20;47.90;;;;;;5044966;28;20505;-57
2021/01/27 09:07:55;;;;;;;;;;;19.20;47.90;;;;;;5048400;28;19933;-56
2021/01/27 09:10:26;;;;;;;;;;;19.20;47.70;;;;;;5040005;28;19925;-58
2021/01/27 09:12:52;;;;;;;;;;;19.20;47.70;;;;;;5046731;28;19943;-57
2021/01/27 09:15:23;;;;;;;;;;;19.30;47.60;;;;;;5040438;28;19933;-57
2021/01/27 09:17:49;;;;;;;;;;;19.20;47.30;;;;;;5049256;28;19932;-57
2021/01/27 09:20:21;;;;;;;;;;;19.30;47.70;;;;;;5040535;28;19924;-58
2021/01/27 09:22:47;;;;;;;;;;;19.30;48.00;;;;;;5047828;28;19925;-56
2021/01/27 09:25:13;;;;;;;;;;;19.30;47.90;;;;;;5039471;28;19936;-57
2021/01/27 09:27:40;;;;;;;;;;;19.30;48.30;;;;;;5048526;28;19940;-57
2021/01/27 09:30:10;;;;;;;;;;;19.30;48.00;;;;;;5042787;28;20316;-57
2021/01/27 09:32:39;;;;;;;;;;;19.30;47.90;;;;;;5048645;28;19925;-58
2021/01/27 09:35:22;;;;;;;;;;;19.30;47.50;;;;;;5037041;28;19952;-52
2021/01/27 09:37:51;;;;;;;;;;;19.20;46.80;;;;;;5049093;28;19939;-55
2021/01/27 09:40:26;;;;;;;;;;;19.00;47.40;;;;;;5038964;28;19943;-52
2021/01/27 09:42:56;;;;;;;;;;;18.90;48.70;;;;;;5049473;28;20069;-54
2021/01/27 09:45:25;;;;;;;;;;;18.80;49.40;;;;;;5040676;28;20536;-54
2021/01/27 09:47:52;;;;;;;;;;;18.70;51.80;;;;;;5049291;28;20398;-56
2021/01/27 09:50:19;;;;;;;;;;;19.10;50.90;;;;;;5043924;28;19928;-54
2021/01/27 09:52:50;;;;;;;;;;;19.50;50.00;;;;;;5045428;28;19926;-54
2021/01/27 09:55:17;;;;;;;;;;;19.80;49.40;;;;;;5044108;28;20377;-54
2021/01/27 09:57:43;;;;;;;;;;;20.00;49.10;;;;;;5041903;28;19936;-54
2021/01/27 10:00:12;;;;;;;;;;;20.10;48.90;;;;;;5045412;28;19951;-52
2021/01/27 10:02:38;;;;;;;;;;;20.20;48.90;;;;;;5038534;28;19933;-53
2021/01/27 10:05:33;;;;;;;;;;;20.40;48.80;;;;;;5046191;28;20627;-57
2021/01/27 10:08:01;;;;;;;;;;;20.40;48.70;;;;;;5048060;28;20652;-57
2021/01/27 10:10:27;;;;;;;;;;;20.50;48.60;;;;;;5054020;28;19956;-57
2021/01/27 10:12:57;;;;;;;;;;;20.60;48.80;;;;;;5057711;28;19986;-55
2021/01/27 10:15:29;;;;;;;;;;;20.60;48.70;;;;;;5051462;28;19932;-57
2021/01/27 10:18:12;;;;;;;;;;;20.70;48.60;;;;;;5046929;28;19939;-57
2021/01/27 10:20:40;;;;;;;;;;;20.80;48.70;;;;;;5046215;28;19932;-55
2021/01/27 10:23:11;;;;;;;;;;;20.90;48.60;;;;;;5047237;28;19928;-57
2021/01/27 10:25:41;;;;;;;;;;;21.00;48.70;;;;;;5042770;28;20414;-53
2021/01/27 10:28:07;;;;;;;;;;;21.00;48.50;;;;;;5023727;28;20083;-53
2021/01/27 10:30:44;;;;;;;;;;;21.10;48.70;;;;;;5044552;28;19933;-53
2021/01/27 10:33:51;;;;;;;;;;;21.10;48.40;;;;;;5037153;28;19943;-53
2021/01/27 10:36:44;;;;;;;;;;;21.10;48.70;;;;;;4959583;28;20434;-53
2021/01/27 10:39:13;;;;;;;;;;;21.10;48.70;;;;;;4950490;28;19972;-53
2021/01/27 10:41:40;;;;;;;;;;;21.10;48.90;;;;;;5018693;28;19933;-52
2021/01/27 10:44:20;;;;;;;;;;;21.20;48.80;;;;;;5049913;28;19931;-52
2021/01/27 10:46:47;;;;;;;;;;;21.20;48.60;;;;;;5049094;28;20396;-57
2021/01/27 10:49:13;;;;;;;;;;;21.30;48.40;;;;;;5043627;28;19929;-58
2021/01/27 10:51:43;;;;;;;;;;;21.40;48.30;;;;;;5051827;28;19939;-59
2021/01/27 10:54:10;;;;;;;;;;;21.50;48.30;;;;;;5050878;28;19924;-58
2021/01/27 10:56:37;;;;;;;;;;;21.60;48.00;;;;;;5053583;28;19932;-58
2021/01/27 10:59:03;;;;;;;;;;;21.60;48.00;;;;;;5050930;28;19932;-57
2021/01/27 11:01:29;;;;;;;;;;;21.60;47.90;;;;;;5049965;28;19925;-58
2021/01/27 11:03:56;;;;;;;;;;;21.70;47.90;;;;;;5045704;28;19925;-56
2021/01/27 11:06:58;;;;;;;;;;;21.70;47.70;;;;;;5051794;28;20281;-59
2021/01/27 11:09:24;;;;;;;;;;;21.70;48.40;;;;;;5047303;28;19925;-60
2021/01/27 11:11:51;;;;;;;;;;;21.80;47.80;;;;;;5048990;28;19924;-54
2021/01/27 11:14:19;;;;;;;;;;;21.80;47.50;;;;;;5040166;28;19924;-54
2021/01/27 11:16:51;;;;;;;;;;;21.50;48.30;;;;;;5045563;28;19936;-60
2021/01/27 11:19:17;;;;;;;;;;;21.10;49.30;;;;;;5041926;28;20423;-60
2021/01/27 11:21:43;;;;;;;;;;;20.80;50.00;;;;;;5046107;28;19932;-58
2021/01/27 11:24:09;;;;;;;;;;;20.50;50.60;;;;;;5041328;28;19939;-58
2021/01/27 11:26:36;;;;;;;;;;;20.40;50.80;;;;;;5048276;28;20377;-59
2021/01/27 11:29:04;;;;;;;;;;;20.20;50.80;;;;;;5045338;28;19925;-58
2021/01/27 11:31:30;;;;;;;;;;;20.20;51.10;;;;;;5048712;28;19972;-59
2021/01/27 11:33:57;;;;;;;;;;;20.00;50.90;;;;;;5049072;28;19948;-60
2021/01/27 11:36:24;;;;;;;;;;;20.00;51.00;;;;;;5043519;28;19925;-58
2021/01/27 11:38:51;;;;;;;;;;;19.90;51.10;;;;;;5051093;28;19982;-59
2021/01/27 11:41:19;;;;;;;;;;;19.90;51.10;;;;;;5044731;28;20008;-59
2021/01/27 11:43:45;;;;;;;;;;;19.80;51.30;;;;;;5049637;28;19937;-59
2021/01/27 11:46:12;;;;;;;;;;;19.70;53.10;;;;;;5044121;28;19925;-60
2021/01/27 11:48:40;;;;;;;;;;;19.90;51.90;;;;;;5048190;28;19932;-60
2021/01/27 11:51:08;;;;;;;;;;;20.00;52.20;;;;;;5053953;28;19936;-58
2021/01/27 11:53:34;;;;;;;;;;;20.00;51.90;;;;;;5050217;28;19929;-59
2021/01/27 11:56:00;;;;;;;;;;;20.10;51.80;;;;;;5051975;28;19925;-60
2021/01/27 11:58:28;;;;;;;;;;;20.20;52.10;;;;;;5049817;28;19951;-62
2021/01/27 12:00:55;;;;;;;;;;;20.20;51.90;;;;;;5045980;28;19925;-62
2021/01/27 12:03:21;;;;;;;;;;;20.20;51.70;;;;;;5045951;28;19929;-61
2021/01/27 12:05:47;;;;;;;;;;;20.30;51.70;;;;;;5044292;28;19940;-61
2021/01/27 12:08:15;;;;;;;;;;;20.30;51.40;;;;;;5047976;28;19933;-60
2021/01/27 12:10:42;;;;;;;;;;;20.30;51.50;;;;;;5047615;28;20459;-60
2021/01/27 12:13:09;;;;;;;;;;;20.30;51.40;;;;;;5052369;28;19924;-57
2021/01/27 12:15:36;;;;;;;;;;;20.30;51.00;;;;;;5056639;28;19925;-57
2021/01/27 12:18:03;;;;;;;;;;;20.10;49.80;;;;;;5044799;28;20254;-57
2021/01/27 12:20:29;;;;;;;;;;;19.90;51.00;;;;;;5050579;28;19932;-55
2021/01/27 12:22:56;;;;;;;;;;;19.80;51.30;;;;;;5045232;28;19933;-55
2021/01/27 12:25:22;;;;;;;;;;;19.80;51.40;;;;;;5058688;28;19929;-56
2021/01/27 12:27:48;;;;;;;;;;;19.70;51.40;;;;;;5046634;28;19936;-60
2021/01/27 12:30:15;;;;;;;;;;;19.60;52.90;;;;;;5051547;28;20416;-61
2021/01/27 12:32:41;;;;;;;;;;;19.70;52.60;;;;;;5050649;28;19925;-60
2021/01/27 12:35:13;;;;;;;;;;;19.80;51.20;;;;;;5047982;28;19933;-52
2021/01/27 12:37:39;;;;;;;;;;;19.70;50.90;;;;;;5050106;28;19924;-56
2021/01/27 12:40:07;;;;;;;;;;;19.70;53.40;;;;;;5050087;28;19932;-56
2021/01/27 12:42:33;;;;;;;;;;;19.80;52.50;;;;;;5052260;28;19936;-56
2021/01/27 12:45:05;;;;;;;;;;;19.90;52.10;;;;;;5053741;28;19932;-54
2021/01/27 12:47:31;;;;;;;;;;;20.00;52.20;;;;;;5043047;28;19940;-58
2021/01/27 12:50:00;;;;;;;;;;;20.00;52.30;;;;;;5044155;28;19956;-58
2021/01/27 12:52:26;;;;;;;;;;;20.10;52.00;;;;;;5038740;28;19932;-58
2021/01/27 12:54:52;;;;;;;;;;;20.10;51.80;;;;;;5043192;28;19939;-58
2021/01/27 12:57:18;;;;;;;;;;;20.10;51.60;;;;;;5045995;28;19936;-58
2021/01/27 12:59:44;;;;;;;;;;;20.20;52.20;;;;;;5037917;28;20400;-58
2021/01/27 13:02:11;;;;;;;;;;;20.20;51.90;;;;;;5044806;28;19935;-57
2021/01/27 13:04:37;;;;;;;;;;;20.20;52.00;;;;;;5039261;28;20533;-59
2021/01/27 13:07:04;;;;;;;;;;;20.20;51.70;;;;;;5051732;28;20377;-57
2021/01/27 13:09:30;;;;;;;;;;;20.20;51.80;;;;;;5046298;28;20288;-56
2021/01/27 13:11:56;;;;;;;;;;;20.20;51.60;;;;;;5052503;28;19925;-57
2021/01/27 13:14:23;;;;;;;;;;;20.20;51.40;;;;;;5050167;28;20266;-58
2021/01/27 13:16:54;;;;;;;;;;;20.20;51.00;;;;;;5050154;28;20361;-56
2021/01/27 13:19:21;;;;;;;;;;;20.30;51.60;;;;;;5049808;28;19948;-55
2021/01/27 13:21:47;;;;;;;;;;;20.30;51.50;;;;;;5052608;28;19924;-55
2021/01/27 13:24:14;;;;;;;;;;;20.30;51.50;;;;;;5057054;28;19925;-58
2021/01/27 13:27:00;;;;;;;;;;;20.20;51.30;;;;;;5053587;28;19936;-57
2021/01/27 13:29:26;;;;;;;;;;;20.20;51.20;;;;;;5056140;28;19925;-57
2021/01/27 13:31:54;;;;;;;;;;;20.20;51.70;;;;;;5046334;28;19932;-55
2021/01/27 13:34:21;;;;;;;;;;;20.30;51.30;;;;;;5045848;28;19936;-58
2021/01/27 13:36:47;;;;;;;;;;;20.30;51.30;;;;;;5051057;28;20600;-55
2021/01/27 13:39:13;;;;;;;;;;;20.30;51.10;;;;;;5048894;28;19932;-55
2021/01/27 13:41:39;;;;;;;;;;;20.30;51.10;;;;;;5053682;28;19960;-56
2021/01/27 13:44:06;;;;;;;;;;;20.30;50.80;;;;;;5051931;28;20301;-55
2021/01/27 13:46:37;;;;;;;;;;;20.20;50.20;;;;;;5045162;28;19944;-58
2021/01/27 13:49:03;;;;;;;;;;;20.10;51.80;;;;;;5053248;28;20285;-57
2021/01/27 13:51:29;;;;;;;;;;;20.10;51.30;;;;;;5039933;28;19933;-56
2021/01/27 13:53:56;;;;;;;;;;;20.20;51.50;;;;;;5042896;28;20013;-55
2021/01/27 13:56:22;;;;;;;;;;;20.20;51.30;;;;;;5040786;28;19948;-56
2021/01/27 13:58:48;;;;;;;;;;;20.20;51.30;;;;;;5044937;28;19935;-57
2021/01/27 14:01:14;;;;;;;;;;;20.20;51.30;;;;;;5038784;28;19924;-57
2021/01/27 14:03:41;;;;;;;;;;;20.30;51.10;;;;;;5047110;28;19933;-57
2021/01/27 14:06:07;;;;;;;;;;;20.30;51.00;;;;;;5043656;28;20002;-58
2021/01/27 14:08:35;;;;;;;;;;;20.30;51.10;;;;;;5045979;28;19932;-56
2021/01/27 14:11:02;;;;;;;;;;;20.30;50.90;;;;;;5037545;28;19929;-55
2021/01/27 14:13:28;;;;;;;;;;;20.30;50.70;;;;;;5048342;28;19940;-56
2021/01/27 14:15:54;;;;;;;;;;;20.30;50.90;;;;;;5034272;28;19932;-56
2021/01/27 14:18:20;;;;;;;;;;;20.30;50.80;;;;;;5047230;28;19924;-56
2021/01/27 14:20:48;;;;;;;;;;;20.30;50.60;;;;;;5039431;28;20381;-55
2021/01/27 14:23:14;;;;;;;;;;;20.40;50.50;;;;;;5048859;28;20322;-56
2021/01/27 14:25:50;;;;;;;;;;;20.40;50.50;;;;;;5050358;28;19936;-56
2021/01/27 14:28:16;;;;;;;;;;;20.30;50.50;;;;;;5041750;28;19932;-54
2021/01/27 14:30:45;;;;;;;;;;;20.20;49.70;;;;;;5046917;28;19933;-54
2021/01/27 14:33:12;;;;;;;;;;;20.00;50.10;;;;;;5041432;28;19956;-54
2021/01/27 14:35:40;;;;;;;;;;;19.90;50.70;;;;;;5047688;28;21459;-57